Eaglescliffe, United Kingdom
Current Conditions -  °F | °C
As of 8:20 AM on Tuesday 21 Oct 2014 (Local Time) from EGNV Reporting Station
Scattered Clouds Scattered Clouds  
Wind Chill: 52°   Ceiling: Unl
Heat Index: 52°   Visibility: 6mi
Dew Point: 43°   Wind: 24mph
Humidity: 71%   Direction: 270°W
Pressure: 29.29"   Gusts: 37mph
Location:  54.53°N, 1.35°W
Report Text: EGNV 210720Z 27021G32KT 9999 FEW015 SCT030 11/06 Q0992
Loading
Personal Weather Stations






























Interactive Weather Map
Tropical Storm Tracking
New forecast layout! Learn more

10-Day Weather Forecast

Advertisements
Track Severe Weather on mobile